sensor_id;sensor_type;location;lat;lon;timestamp;P1;durP1;ratioP1;P2;durP2;ratioP2
77598;SDS011;66758;52.078;5.070;2023-04-30T00:01:56;13.90;;;6.90;;
77598;SDS011;66758;52.078;5.070;2023-04-30T00:04:21;13.90;;;6.90;;
77598;SDS011;66758;52.078;5.070;2023-04-30T00:06:46;13.97;;;7.27;;
77598;SDS011;66758;52.078;5.070;2023-04-30T00:09:12;12.50;;;7.00;;
77598;SDS011;66758;52.078;5.070;2023-04-30T00:11:37;15.23;;;7.37;;
77598;SDS011;66758;52.078;5.070;2023-04-30T00:14:02;14.87;;;6.87;;
77598;SDS011;66758;52.078;5.070;2023-04-30T00:16:27;13.97;;;7.53;;
77598;SDS011;66758;52.078;5.070;2023-04-30T00:18:53;14.13;;;7.43;;
77598;SDS011;66758;52.078;5.070;2023-04-30T00:21:18;14.27;;;7.23;;
77598;SDS011;66758;52.078;5.070;2023-04-30T00:23:43;15.13;;;7.43;;
77598;SDS011;66758;52.078;5.070;2023-04-30T00:26:09;14.80;;;6.97;;
77598;SDS011;66758;52.078;5.070;2023-04-30T00:28:34;15.20;;;7.43;;
77598;SDS011;66758;52.078;5.070;2023-04-30T00:30:59;16.77;;;7.60;;
77598;SDS011;66758;52.078;5.070;2023-04-30T00:33:25;15.13;;;7.82;;
77598;SDS011;66758;52.078;5.070;2023-04-30T00:35:50;15.23;;;7.37;;
77598;SDS011;66758;52.078;5.070;2023-04-30T00:38:15;18.23;;;7.80;;
77598;SDS011;66758;52.078;5.070;2023-04-30T00:40:41;17.43;;;8.30;;
77598;SDS011;66758;52.078;5.070;2023-04-30T00:43:07;13.60;;;7.03;;
77598;SDS011;66758;52.078;5.070;2023-04-30T00:45:32;14.13;;;7.60;;
77598;SDS011;66758;52.078;5.070;2023-04-30T00:47:58;13.33;;;7.50;;
77598;SDS011;66758;52.078;5.070;2023-04-30T00:50:23;16.05;;;8.13;;
77598;SDS011;66758;52.078;5.070;2023-04-30T00:52:49;14.73;;;7.83;;
77598;SDS011;66758;52.078;5.070;2023-04-30T00:55:14;15.10;;;7.67;;
77598;SDS011;66758;52.078;5.070;2023-04-30T00:57:40;14.18;;;7.82;;
77598;SDS011;66758;52.078;5.070;2023-04-30T01:00:06;12.80;;;7.37;;
77598;SDS011;66758;52.078;5.070;2023-04-30T01:02:35;16.90;;;8.55;;
77598;SDS011;66758;52.078;5.070;2023-04-30T01:05:01;12.70;;;7.43;;
77598;SDS011;66758;52.078;5.070;2023-04-30T01:07:26;19.15;;;8.70;;
77598;SDS011;66758;52.078;5.070;2023-04-30T01:09:52;16.17;;;9.07;;
77598;SDS011;66758;52.078;5.070;2023-04-30T01:12:38;17.30;;;9.07;;
77598;SDS011;66758;52.078;5.070;2023-04-30T01:17:40;17.20;;;9.00;;
77598;SDS011;66758;52.078;5.070;2023-04-30T01:20:10;19.05;;;10.10;;
77598;SDS011;66758;52.078;5.070;2023-04-30T01:22:41;19.50;;;9.90;;
77598;SDS011;66758;52.078;5.070;2023-04-30T01:25:13;16.08;;;9.02;;
77598;SDS011;66758;52.078;5.070;2023-04-30T01:30:23;17.17;;;9.80;;
77598;SDS011;66758;52.078;5.070;2023-04-30T01:32:49;20.73;;;9.80;;
77598;SDS011;66758;52.078;5.070;2023-04-30T01:35:14;21.00;;;9.73;;
77598;SDS011;66758;52.078;5.070;2023-04-30T01:37:47;20.20;;;9.65;;
77598;SDS011;66758;52.078;5.070;2023-04-30T01:43:09;17.80;;;10.07;;
77598;SDS011;66758;52.078;5.070;2023-04-30T01:48:27;17.45;;;9.60;;
77598;SDS011;66758;52.078;5.070;2023-04-30T01:53:32;14.48;;;8.30;;
77598;SDS011;66758;52.078;5.070;2023-04-30T01:56:03;16.47;;;8.20;;
77598;SDS011;66758;52.078;5.070;2023-04-30T01:58:30;15.27;;;8.00;;
77598;SDS011;66758;52.078;5.070;2023-04-30T02:00:56;14.13;;;7.35;;
77598;SDS011;66758;52.078;5.070;2023-04-30T02:03:21;17.80;;;7.90;;
77598;SDS011;66758;52.078;5.070;2023-04-30T02:05:46;14.67;;;7.53;;
77598;SDS011;66758;52.078;5.070;2023-04-30T02:08:13;16.25;;;8.43;;
77598;SDS011;66758;52.078;5.070;2023-04-30T02:10:38;17.17;;;8.70;;
77598;SDS011;66758;52.078;5.070;2023-04-30T02:13:04;19.33;;;9.40;;
77598;SDS011;66758;52.078;5.070;2023-04-30T02:15:29;19.73;;;9.03;;
77598;SDS011;66758;52.078;5.070;2023-04-30T02:17:54;17.73;;;9.00;;
77598;SDS011;66758;52.078;5.070;2023-04-30T02:20:21;17.48;;;7.97;;
77598;SDS011;66758;52.078;5.070;2023-04-30T02:22:46;18.70;;;9.50;;
77598;SDS011;66758;52.078;5.070;2023-04-30T02:25:12;19.13;;;8.70;;
77598;SDS011;66758;52.078;5.070;2023-04-30T02:27:39;17.80;;;8.48;;
77598;SDS011;66758;52.078;5.070;2023-04-30T02:30:04;15.80;;;8.50;;
77598;SDS011;66758;52.078;5.070;2023-04-30T02:32:30;17.95;;;8.80;;
77598;SDS011;66758;52.078;5.070;2023-04-30T02:34:55;16.10;;;8.93;;
77598;SDS011;66758;52.078;5.070;2023-04-30T02:37:21;15.77;;;9.47;;
77598;SDS011;66758;52.078;5.070;2023-04-30T02:39:46;17.70;;;8.60;;
77598;SDS011;66758;52.078;5.070;2023-04-30T02:42:12;15.35;;;8.25;;
77598;SDS011;66758;52.078;5.070;2023-04-30T02:44:37;14.57;;;8.07;;
77598;SDS011;66758;52.078;5.070;2023-04-30T02:47:02;16.17;;;8.83;;
77598;SDS011;66758;52.078;5.070;2023-04-30T02:49:28;15.37;;;8.00;;
77598;SDS011;66758;52.078;5.070;2023-04-30T02:51:53;16.07;;;7.20;;
77598;SDS011;66758;52.078;5.070;2023-04-30T02:54:18;18.23;;;7.63;;
77598;SDS011;66758;52.078;5.070;2023-04-30T02:56:44;14.30;;;8.03;;
77598;SDS011;66758;52.078;5.070;2023-04-30T02:59:11;13.83;;;7.70;;
77598;SDS011;66758;52.078;5.070;2023-04-30T03:01:37;11.88;;;7.13;;
77598;SDS011;66758;52.078;5.070;2023-04-30T03:04:02;14.80;;;7.20;;
77598;SDS011;66758;52.078;5.070;2023-04-30T03:06:29;13.52;;;7.20;;
77598;SDS011;66758;52.078;5.070;2023-04-30T03:08:55;12.10;;;6.57;;
77598;SDS011;66758;52.078;5.070;2023-04-30T03:11:20;13.30;;;6.70;;
77598;SDS011;66758;52.078;5.070;2023-04-30T03:13:46;13.13;;;7.47;;
77598;SDS011;66758;52.078;5.070;2023-04-30T03:16:16;13.68;;;7.30;;
77598;SDS011;66758;52.078;5.070;2023-04-30T03:18:42;14.55;;;7.45;;
77598;SDS011;66758;52.078;5.070;2023-04-30T03:21:07;11.90;;;6.70;;
77598;SDS011;66758;52.078;5.070;2023-04-30T03:23:33;14.83;;;7.37;;
77598;SDS011;66758;52.078;5.070;2023-04-30T03:25:58;13.67;;;6.73;;
77598;SDS011;66758;52.078;5.070;2023-04-30T03:28:24;12.27;;;7.20;;
77598;SDS011;66758;52.078;5.070;2023-04-30T03:30:49;13.53;;;6.70;;
77598;SDS011;66758;52.078;5.070;2023-04-30T03:33:14;13.83;;;6.97;;
77598;SDS011;66758;52.078;5.070;2023-04-30T03:35:39;11.00;;;6.23;;
77598;SDS011;66758;52.078;5.070;2023-04-30T03:38:05;13.53;;;6.67;;
77598;SDS011;66758;52.078;5.070;2023-04-30T03:40:30;12.83;;;6.73;;
77598;SDS011;66758;52.078;5.070;2023-04-30T03:42:55;11.13;;;5.43;;
77598;SDS011;66758;52.078;5.070;2023-04-30T03:45:21;11.63;;;6.10;;
77598;SDS011;66758;52.078;5.070;2023-04-30T03:47:46;12.80;;;6.27;;
77598;SDS011;66758;52.078;5.070;2023-04-30T03:50:12;11.75;;;6.57;;
77598;SDS011;66758;52.078;5.070;2023-04-30T03:52:38;12.03;;;6.40;;
77598;SDS011;66758;52.078;5.070;2023-04-30T03:55:04;17.43;;;6.87;;
77598;SDS011;66758;52.078;5.070;2023-04-30T03:57:30;14.18;;;6.53;;
77598;SDS011;66758;52.078;5.070;2023-04-30T03:59:55;12.60;;;6.22;;
77598;SDS011;66758;52.078;5.070;2023-04-30T04:02:21;13.63;;;6.23;;
77598;SDS011;66758;52.078;5.070;2023-04-30T04:04:46;12.33;;;6.17;;
77598;SDS011;66758;52.078;5.070;2023-04-30T04:07:11;11.60;;;5.93;;
77598;SDS011;66758;52.078;5.070;2023-04-30T04:09:37;10.40;;;5.50;;
77598;SDS011;66758;52.078;5.070;2023-04-30T04:12:02;11.03;;;5.33;;
77598;SDS011;66758;52.078;5.070;2023-04-30T04:14:27;10.13;;;5.65;;
77598;SDS011;66758;52.078;5.070;2023-04-30T04:16:52;11.63;;;5.50;;
77598;SDS011;66758;52.078;5.070;2023-04-30T04:19:18;10.50;;;5.07;;
77598;SDS011;66758;52.078;5.070;2023-04-30T04:21:43;10.80;;;6.00;;
77598;SDS011;66758;52.078;5.070;2023-04-30T04:24:09;10.83;;;5.43;;
77598;SDS011;66758;52.078;5.070;2023-04-30T04:26:36;10.32;;;5.50;;
77598;SDS011;66758;52.078;5.070;2023-04-30T04:29:04;10.23;;;5.17;;
77598;SDS011;66758;52.078;5.070;2023-04-30T04:31:30;10.05;;;6.07;;
77598;SDS011;66758;52.078;5.070;2023-04-30T04:33:57;10.63;;;6.10;;
77598;SDS011;66758;52.078;5.070;2023-04-30T04:36:24;12.07;;;6.00;;
77598;SDS011;66758;52.078;5.070;2023-04-30T04:38:51;9.75;;;5.68;;
77598;SDS011;66758;52.078;5.070;2023-04-30T04:41:17;11.77;;;5.97;;
77598;SDS011;66758;52.078;5.070;2023-04-30T04:43:42;10.73;;;5.82;;
77598;SDS011;66758;52.078;5.070;2023-04-30T04:46:08;9.00;;;5.10;;
77598;SDS011;66758;52.078;5.070;2023-04-30T04:48:33;14.90;;;6.20;;
77598;SDS011;66758;52.078;5.070;2023-04-30T04:50:58;11.37;;;6.13;;
77598;SDS011;66758;52.078;5.070;2023-04-30T04:53:23;11.73;;;6.40;;
77598;SDS011;66758;52.078;5.070;2023-04-30T04:55:49;12.05;;;5.25;;
77598;SDS011;66758;52.078;5.070;2023-04-30T04:58:14;9.57;;;5.47;;
77598;SDS011;66758;52.078;5.070;2023-04-30T05:00:39;11.60;;;5.83;;
77598;SDS011;66758;52.078;5.070;2023-04-30T05:03:04;12.37;;;5.93;;
77598;SDS011;66758;52.078;5.070;2023-04-30T05:05:30;11.13;;;6.47;;
77598;SDS011;66758;52.078;5.070;2023-04-30T05:07:56;9.07;;;5.47;;
77598;SDS011;66758;52.078;5.070;2023-04-30T05:10:21;11.85;;;5.97;;
77598;SDS011;66758;52.078;5.070;2023-04-30T05:12:47;12.00;;;7.07;;
77598;SDS011;66758;52.078;5.070;2023-04-30T05:15:12;10.47;;;5.93;;
77598;SDS011;66758;52.078;5.070;2023-04-30T05:17:37;11.83;;;6.47;;
77598;SDS011;66758;52.078;5.070;2023-04-30T05:20:02;12.73;;;6.00;;
77598;SDS011;66758;52.078;5.070;2023-04-30T05:22:28;12.77;;;6.00;;
77598;SDS011;66758;52.078;5.070;2023-04-30T05:24:53;10.52;;;6.00;;
77598;SDS011;66758;52.078;5.070;2023-04-30T05:27:19;9.80;;;5.65;;
77598;SDS011;66758;52.078;5.070;2023-04-30T05:29:45;10.13;;;6.03;;
77598;SDS011;66758;52.078;5.070;2023-04-30T05:32:10;10.13;;;5.40;;
77598;SDS011;66758;52.078;5.070;2023-04-30T05:34:35;13.27;;;6.03;;
77598;SDS011;66758;52.078;5.070;2023-04-30T05:37:01;11.77;;;6.07;;
77598;SDS011;66758;52.078;5.070;2023-04-30T05:39:26;13.03;;;6.47;;
77598;SDS011;66758;52.078;5.070;2023-04-30T05:41:51;12.40;;;5.73;;
77598;SDS011;66758;52.078;5.070;2023-04-30T05:44:17;11.40;;;6.53;;
77598;SDS011;66758;52.078;5.070;2023-04-30T05:46:42;11.27;;;5.67;;
77598;SDS011;66758;52.078;5.070;2023-04-30T05:49:07;11.53;;;6.10;;
77598;SDS011;66758;52.078;5.070;2023-04-30T05:51:32;12.47;;;6.90;;
77598;SDS011;66758;52.078;5.070;2023-04-30T05:53:58;11.07;;;6.60;;
77598;SDS011;66758;52.078;5.070;2023-04-30T05:56:24;8.88;;;5.25;;
77598;SDS011;66758;52.078;5.070;2023-04-30T05:58:49;8.87;;;5.70;;
77598;SDS011;66758;52.078;5.070;2023-04-30T06:01:16;11.25;;;5.97;;
77598;SDS011;66758;52.078;5.070;2023-04-30T06:03:43;8.82;;;5.50;;
77598;SDS011;66758;52.078;5.070;2023-04-30T06:06:08;9.27;;;5.13;;
77598;SDS011;66758;52.078;5.070;2023-04-30T06:08:33;8.70;;;5.43;;
77598;SDS011;66758;52.078;5.070;2023-04-30T06:10:59;11.03;;;5.63;;
77598;SDS011;66758;52.078;5.070;2023-04-30T06:13:24;11.43;;;5.33;;
77598;SDS011;66758;52.078;5.070;2023-04-30T06:15:51;8.80;;;5.10;;
77598;SDS011;66758;52.078;5.070;2023-04-30T06:18:16;9.48;;;5.38;;
77598;SDS011;66758;52.078;5.070;2023-04-30T06:20:41;10.30;;;4.83;;
77598;SDS011;66758;52.078;5.070;2023-04-30T06:23:07;11.20;;;5.90;;
77598;SDS011;66758;52.078;5.070;2023-04-30T06:25:33;11.18;;;5.50;;
77598;SDS011;66758;52.078;5.070;2023-04-30T06:27:58;9.07;;;5.17;;
77598;SDS011;66758;52.078;5.070;2023-04-30T06:30:23;13.57;;;6.17;;
77598;SDS011;66758;52.078;5.070;2023-04-30T06:32:48;11.30;;;5.33;;
77598;SDS011;66758;52.078;5.070;2023-04-30T06:35:14;13.60;;;6.03;;
77598;SDS011;66758;52.078;5.070;2023-04-30T06:37:39;8.07;;;4.87;;
77598;SDS011;66758;52.078;5.070;2023-04-30T06:40:05;11.27;;;6.60;;
77598;SDS011;66758;52.078;5.070;2023-04-30T06:42:30;10.50;;;5.80;;
77598;SDS011;66758;52.078;5.070;2023-04-30T06:44:59;15.27;;;7.15;;
77598;SDS011;66758;52.078;5.070;2023-04-30T06:47:25;13.23;;;7.63;;
77598;SDS011;66758;52.078;5.070;2023-04-30T06:49:50;14.23;;;8.03;;
77598;SDS011;66758;52.078;5.070;2023-04-30T06:52:15;13.33;;;8.17;;
77598;SDS011;66758;52.078;5.070;2023-04-30T06:54:40;13.57;;;8.37;;
77598;SDS011;66758;52.078;5.070;2023-04-30T06:57:08;13.45;;;8.23;;
77598;SDS011;66758;52.078;5.070;2023-04-30T06:59:36;14.20;;;8.70;;
77598;SDS011;66758;52.078;5.070;2023-04-30T07:02:01;12.73;;;7.73;;
77598;SDS011;66758;52.078;5.070;2023-04-30T07:04:27;13.77;;;7.03;;
77598;SDS011;66758;52.078;5.070;2023-04-30T07:06:54;11.10;;;5.82;;
77598;SDS011;66758;52.078;5.070;2023-04-30T07:09:19;9.93;;;6.63;;
77598;SDS011;66758;52.078;5.070;2023-04-30T07:11:44;11.03;;;6.60;;
77598;SDS011;66758;52.078;5.070;2023-04-30T07:14:09;11.93;;;6.00;;
77598;SDS011;66758;52.078;5.070;2023-04-30T07:16:35;10.10;;;5.73;;
77598;SDS011;66758;52.078;5.070;2023-04-30T07:19:00;11.53;;;5.30;;
77598;SDS011;66758;52.078;5.070;2023-04-30T07:21:25;11.00;;;5.90;;
77598;SDS011;66758;52.078;5.070;2023-04-30T07:23:53;8.02;;;5.43;;
77598;SDS011;66758;52.078;5.070;2023-04-30T07:26:19;8.32;;;5.00;;
77598;SDS011;66758;52.078;5.070;2023-04-30T07:28:47;10.77;;;5.00;;
77598;SDS011;66758;52.078;5.070;2023-04-30T07:31:13;9.23;;;4.95;;
77598;SDS011;66758;52.078;5.070;2023-04-30T07:33:39;9.53;;;5.00;;
77598;SDS011;66758;52.078;5.070;2023-04-30T07:36:04;7.97;;;4.63;;
77598;SDS011;66758;52.078;5.070;2023-04-30T07:38:30;10.68;;;5.35;;
77598;SDS011;66758;52.078;5.070;2023-04-30T07:40:56;10.35;;;4.70;;
77598;SDS011;66758;52.078;5.070;2023-04-30T07:43:24;6.87;;;4.27;;
77598;SDS011;66758;52.078;5.070;2023-04-30T07:45:49;8.15;;;5.03;;
77598;SDS011;66758;52.078;5.070;2023-04-30T07:48:15;8.63;;;4.63;;
77598;SDS011;66758;52.078;5.070;2023-04-30T07:50:41;9.13;;;4.93;;
77598;SDS011;66758;52.078;5.070;2023-04-30T07:53:06;7.73;;;4.53;;
77598;SDS011;66758;52.078;5.070;2023-04-30T07:55:33;7.68;;;4.80;;
77598;SDS011;66758;52.078;5.070;2023-04-30T07:58:00;6.40;;;3.87;;
77598;SDS011;66758;52.078;5.070;2023-04-30T08:00:26;8.32;;;4.65;;
77598;SDS011;66758;52.078;5.070;2023-04-30T08:02:53;9.77;;;4.88;;
77598;SDS011;66758;52.078;5.070;2023-04-30T08:05:19;7.67;;;4.30;;
77598;SDS011;66758;52.078;5.070;2023-04-30T08:07:44;8.17;;;4.03;;
77598;SDS011;66758;52.078;5.070;2023-04-30T08:10:10;7.67;;;4.00;;
77598;SDS011;66758;52.078;5.070;2023-04-30T08:12:35;8.13;;;4.30;;
77598;SDS011;66758;52.078;5.070;2023-04-30T08:15:04;7.78;;;3.67;;
77598;SDS011;66758;52.078;5.070;2023-04-30T08:17:30;5.72;;;3.92;;
77598;SDS011;66758;52.078;5.070;2023-04-30T08:19:56;7.67;;;4.57;;
77598;SDS011;66758;52.078;5.070;2023-04-30T08:22:21;7.47;;;4.50;;
77598;SDS011;66758;52.078;5.070;2023-04-30T08:24:46;6.37;;;4.17;;
77598;SDS011;66758;52.078;5.070;2023-04-30T08:27:12;6.07;;;4.27;;
77598;SDS011;66758;52.078;5.070;2023-04-30T08:29:37;9.53;;;4.23;;
77598;SDS011;66758;52.078;5.070;2023-04-30T08:32:02;7.83;;;4.00;;
77598;SDS011;66758;52.078;5.070;2023-04-30T08:34:29;7.68;;;4.20;;
77598;SDS011;66758;52.078;5.070;2023-04-30T08:36:54;5.80;;;3.73;;
77598;SDS011;66758;52.078;5.070;2023-04-30T08:39:20;7.10;;;3.85;;
77598;SDS011;66758;52.078;5.070;2023-04-30T08:41:45;8.83;;;3.80;;
77598;SDS011;66758;52.078;5.070;2023-04-30T08:44:13;5.95;;;3.90;;
77598;SDS011;66758;52.078;5.070;2023-04-30T08:46:38;5.77;;;3.80;;
77598;SDS011;66758;52.078;5.070;2023-04-30T08:49:05;7.03;;;3.50;;
77598;SDS011;66758;52.078;5.070;2023-04-30T08:51:31;9.05;;;4.00;;
77598;SDS011;66758;52.078;5.070;2023-04-30T08:53:57;7.40;;;3.95;;
77598;SDS011;66758;52.078;5.070;2023-04-30T08:56:22;7.80;;;4.17;;
77598;SDS011;66758;52.078;5.070;2023-04-30T08:58:48;7.35;;;4.10;;
77598;SDS011;66758;52.078;5.070;2023-04-30T09:01:13;8.20;;;3.87;;
77598;SDS011;66758;52.078;5.070;2023-04-30T09:03:39;8.97;;;4.30;;
77598;SDS011;66758;52.078;5.070;2023-04-30T09:06:04;7.43;;;4.43;;
77598;SDS011;66758;52.078;5.070;2023-04-30T09:08:43;6.07;;;3.97;;
77598;SDS011;66758;52.078;5.070;2023-04-30T09:13:50;7.45;;;4.18;;
77598;SDS011;66758;52.078;5.070;2023-04-30T09:16:16;6.35;;;4.07;;
77598;SDS011;66758;52.078;5.070;2023-04-30T09:18:42;6.20;;;4.20;;
77598;SDS011;66758;52.078;5.070;2023-04-30T09:21:07;6.07;;;4.00;;
77598;SDS011;66758;52.078;5.070;2023-04-30T09:23:33;7.40;;;4.20;;
77598;SDS011;66758;52.078;5.070;2023-04-30T09:25:58;6.07;;;3.97;;
77598;SDS011;66758;52.078;5.070;2023-04-30T09:28:25;7.47;;;4.50;;
77598;SDS011;66758;52.078;5.070;2023-04-30T09:30:52;6.83;;;3.70;;
77598;SDS011;66758;52.078;5.070;2023-04-30T09:33:18;5.65;;;4.20;;
77598;SDS011;66758;52.078;5.070;2023-04-30T09:35:44;6.57;;;4.22;;
77598;SDS011;66758;52.078;5.070;2023-04-30T09:38:25;6.00;;;4.10;;
77598;SDS011;66758;52.078;5.070;2023-04-30T09:40:51;5.85;;;4.05;;
77598;SDS011;66758;52.078;5.070;2023-04-30T09:43:16;6.90;;;4.17;;
77598;SDS011;66758;52.078;5.070;2023-04-30T09:45:42;6.20;;;4.20;;
77598;SDS011;66758;52.078;5.070;2023-04-30T09:48:11;5.75;;;4.13;;
77598;SDS011;66758;52.078;5.070;2023-04-30T09:50:37;6.13;;;4.13;;
77598;SDS011;66758;52.078;5.070;2023-04-30T09:53:04;7.50;;;4.53;;
77598;SDS011;66758;52.078;5.070;2023-04-30T09:55:29;7.13;;;3.90;;
77598;SDS011;66758;52.078;5.070;2023-04-30T09:57:54;7.67;;;4.17;;
77598;SDS011;66758;52.078;5.070;2023-04-30T10:00:20;6.47;;;4.63;;
77598;SDS011;66758;52.078;5.070;2023-04-30T10:02:45;6.30;;;4.17;;
77598;SDS011;66758;52.078;5.070;2023-04-30T10:05:11;6.25;;;4.20;;
77598;SDS011;66758;52.078;5.070;2023-04-30T10:07:37;6.10;;;3.80;;
77598;SDS011;66758;52.078;5.070;2023-04-30T10:10:07;4.85;;;3.58;;
77598;SDS011;66758;52.078;5.070;2023-04-30T10:15:35;6.37;;;4.10;;
77598;SDS011;66758;52.078;5.070;2023-04-30T10:17:53;7.28;;;4.03;;
77598;SDS011;66758;52.078;5.070;2023-04-30T10:20:20;6.15;;;4.43;;
77598;SDS011;66758;52.078;5.070;2023-04-30T10:22:46;6.13;;;3.53;;
77598;SDS011;66758;52.078;5.070;2023-04-30T10:25:12;6.37;;;4.10;;
77598;SDS011;66758;52.078;5.070;2023-04-30T10:27:37;5.60;;;4.00;;
77598;SDS011;66758;52.078;5.070;2023-04-30T10:30:03;6.30;;;4.33;;
77598;SDS011;66758;52.078;5.070;2023-04-30T10:32:29;5.25;;;4.00;;
77598;SDS011;66758;52.078;5.070;2023-04-30T10:40:06;8.15;;;4.13;;
77598;SDS011;66758;52.078;5.070;2023-04-30T10:42:34;5.40;;;3.93;;
77598;SDS011;66758;52.078;5.070;2023-04-30T10:45:00;5.68;;;3.40;;
77598;SDS011;66758;52.078;5.070;2023-04-30T10:47:29;5.63;;;3.78;;
77598;SDS011;66758;52.078;5.070;2023-04-30T10:50:04;4.50;;;3.58;;
77598;SDS011;66758;52.078;5.070;2023-04-30T10:52:32;5.50;;;3.15;;
77598;SDS011;66758;52.078;5.070;2023-04-30T10:54:57;5.23;;;3.10;;
77598;SDS011;66758;52.078;5.070;2023-04-30T10:57:23;5.50;;;3.23;;
77598;SDS011;66758;52.078;5.070;2023-04-30T11:02:14;4.53;;;3.30;;
77598;SDS011;66758;52.078;5.070;2023-04-30T11:07:24;3.93;;;2.80;;
77598;SDS011;66758;52.078;5.070;2023-04-30T11:09:50;4.03;;;2.70;;
77598;SDS011;66758;52.078;5.070;2023-04-30T11:12:20;5.47;;;3.13;;
77598;SDS011;66758;52.078;5.070;2023-04-30T11:14:54;4.30;;;3.33;;
77598;SDS011;66758;52.078;5.070;2023-04-30T11:17:22;4.63;;;3.28;;
77598;SDS011;66758;52.078;5.070;2023-04-30T11:19:48;4.60;;;3.38;;
77598;SDS011;66758;52.078;5.070;2023-04-30T11:22:15;5.95;;;4.00;;
77598;SDS011;66758;52.078;5.070;2023-04-30T11:27:23;6.00;;;3.43;;
77598;SDS011;66758;52.078;5.070;2023-04-30T11:29:48;4.85;;;3.10;;
77598;SDS011;66758;52.078;5.070;2023-04-30T11:32:15;4.72;;;3.53;;
77598;SDS011;66758;52.078;5.070;2023-04-30T11:34:42;4.18;;;3.35;;
77598;SDS011;66758;52.078;5.070;2023-04-30T11:37:08;7.43;;;3.75;;
77598;SDS011;66758;52.078;5.070;2023-04-30T11:39:36;4.73;;;3.43;;
77598;SDS011;66758;52.078;5.070;2023-04-30T11:42:02;5.25;;;3.25;;
77598;SDS011;66758;52.078;5.070;2023-04-30T11:44:27;4.73;;;3.17;;
77598;SDS011;66758;52.078;5.070;2023-04-30T11:46:52;4.07;;;2.93;;
77598;SDS011;66758;52.078;5.070;2023-04-30T11:49:21;5.45;;;3.72;;
77598;SDS011;66758;52.078;5.070;2023-04-30T11:51:47;4.40;;;2.93;;
77598;SDS011;66758;52.078;5.070;2023-04-30T11:54:13;3.78;;;2.53;;
77598;SDS011;66758;52.078;5.070;2023-04-30T11:56:38;3.70;;;2.90;;
77598;SDS011;66758;52.078;5.070;2023-04-30T11:59:10;4.13;;;2.50;;
77598;SDS011;66758;52.078;5.070;2023-04-30T12:01:35;3.75;;;2.80;;
77598;SDS011;66758;52.078;5.070;2023-04-30T12:04:01;4.35;;;2.80;;
77598;SDS011;66758;52.078;5.070;2023-04-30T12:06:28;3.37;;;2.57;;
77598;SDS011;66758;52.078;5.070;2023-04-30T12:08:54;4.07;;;2.90;;
77598;SDS011;66758;52.078;5.070;2023-04-30T12:11:20;3.88;;;2.28;;
77598;SDS011;66758;52.078;5.070;2023-04-30T12:13:49;3.85;;;3.00;;
77598;SDS011;66758;52.078;5.070;2023-04-30T12:16:14;3.30;;;2.53;;
77598;SDS011;66758;52.078;5.070;2023-04-30T12:18:39;4.07;;;2.60;;
77598;SDS011;66758;52.078;5.070;2023-04-30T12:21:05;3.20;;;2.60;;
77598;SDS011;66758;52.078;5.070;2023-04-30T12:23:30;3.30;;;2.37;;
77598;SDS011;66758;52.078;5.070;2023-04-30T12:25:58;4.93;;;2.60;;
77598;SDS011;66758;52.078;5.070;2023-04-30T12:28:23;3.70;;;2.65;;
77598;SDS011;66758;52.078;5.070;2023-04-30T12:30:48;4.83;;;2.70;;
77598;SDS011;66758;52.078;5.070;2023-04-30T12:33:15;5.83;;;2.70;;
77598;SDS011;66758;52.078;5.070;2023-04-30T12:35:41;4.85;;;2.60;;
77598;SDS011;66758;52.078;5.070;2023-04-30T12:38:08;3.97;;;2.50;;
77598;SDS011;66758;52.078;5.070;2023-04-30T12:40:33;5.27;;;2.93;;
77598;SDS011;66758;52.078;5.070;2023-04-30T12:48:10;3.88;;;2.38;;
77598;SDS011;66758;52.078;5.070;2023-04-30T12:50:36;5.60;;;2.53;;
77598;SDS011;66758;52.078;5.070;2023-04-30T12:53:02;4.43;;;2.47;;
77598;SDS011;66758;52.078;5.070;2023-04-30T12:55:28;4.97;;;2.28;;
77598;SDS011;66758;52.078;5.070;2023-04-30T12:58:01;4.25;;;2.13;;
77598;SDS011;66758;52.078;5.070;2023-04-30T13:00:26;3.27;;;1.70;;
77598;SDS011;66758;52.078;5.070;2023-04-30T13:02:52;4.32;;;2.00;;
77598;SDS011;66758;52.078;5.070;2023-04-30T13:05:17;10.40;;;2.20;;
77598;SDS011;66758;52.078;5.070;2023-04-30T13:07:42;3.80;;;1.97;;
77598;SDS011;66758;52.078;5.070;2023-04-30T13:10:08;3.77;;;1.83;;
77598;SDS011;66758;52.078;5.070;2023-04-30T13:12:33;3.27;;;1.80;;
77598;SDS011;66758;52.078;5.070;2023-04-30T13:15:00;3.30;;;1.70;;
77598;SDS011;66758;52.078;5.070;2023-04-30T13:17:27;4.03;;;2.10;;
77598;SDS011;66758;52.078;5.070;2023-04-30T13:19:52;5.73;;;2.20;;
77598;SDS011;66758;52.078;5.070;2023-04-30T13:22:18;4.47;;;2.27;;
77598;SDS011;66758;52.078;5.070;2023-04-30T13:24:43;3.57;;;1.97;;
77598;SDS011;66758;52.078;5.070;2023-04-30T13:27:08;4.33;;;2.27;;
77598;SDS011;66758;52.078;5.070;2023-04-30T13:29:33;3.07;;;1.90;;
77598;SDS011;66758;52.078;5.070;2023-04-30T13:31:59;3.93;;;1.83;;
77598;SDS011;66758;52.078;5.070;2023-04-30T13:34:24;3.53;;;2.00;;
77598;SDS011;66758;52.078;5.070;2023-04-30T13:36:50;3.43;;;1.50;;
77598;SDS011;66758;52.078;5.070;2023-04-30T13:39:17;5.45;;;1.90;;
77598;SDS011;66758;52.078;5.070;2023-04-30T13:41:43;3.03;;;1.70;;
77598;SDS011;66758;52.078;5.070;2023-04-30T13:44:09;3.43;;;1.83;;
77598;SDS011;66758;52.078;5.070;2023-04-30T13:46:34;4.33;;;2.20;;
77598;SDS011;66758;52.078;5.070;2023-04-30T13:48:59;2.97;;;1.40;;
77598;SDS011;66758;52.078;5.070;2023-04-30T13:51:25;3.63;;;1.87;;
77598;SDS011;66758;52.078;5.070;2023-04-30T13:53:51;4.53;;;1.93;;
77598;SDS011;66758;52.078;5.070;2023-04-30T13:56:17;3.03;;;1.70;;
77598;SDS011;66758;52.078;5.070;2023-04-30T13:58:42;4.40;;;1.93;;
77598;SDS011;66758;52.078;5.070;2023-04-30T14:01:08;3.87;;;1.80;;
77598;SDS011;66758;52.078;5.070;2023-04-30T14:03:34;3.78;;;1.98;;
77598;SDS011;66758;52.078;5.070;2023-04-30T14:05:59;6.23;;;1.63;;
77598;SDS011;66758;52.078;5.070;2023-04-30T14:08:25;3.17;;;1.55;;
77598;SDS011;66758;52.078;5.070;2023-04-30T14:10:50;3.40;;;1.77;;
77598;SDS011;66758;52.078;5.070;2023-04-30T14:13:16;3.47;;;1.70;;
77598;SDS011;66758;52.078;5.070;2023-04-30T14:15:42;3.97;;;1.77;;
77598;SDS011;66758;52.078;5.070;2023-04-30T14:18:07;3.27;;;1.43;;
77598;SDS011;66758;52.078;5.070;2023-04-30T14:20:32;3.60;;;1.80;;
77598;SDS011;66758;52.078;5.070;2023-04-30T14:22:57;3.37;;;2.47;;
77598;SDS011;66758;52.078;5.070;2023-04-30T14:25:23;4.53;;;2.10;;
77598;SDS011;66758;52.078;5.070;2023-04-30T14:27:48;3.53;;;1.80;;
77598;SDS011;66758;52.078;5.070;2023-04-30T14:30:13;3.63;;;2.03;;
77598;SDS011;66758;52.078;5.070;2023-04-30T14:32:39;3.33;;;2.00;;
77598;SDS011;66758;52.078;5.070;2023-04-30T14:35:05;4.18;;;1.77;;
77598;SDS011;66758;52.078;5.070;2023-04-30T14:37:30;3.10;;;1.80;;
77598;SDS011;66758;52.078;5.070;2023-04-30T14:39:55;4.63;;;2.20;;
77598;SDS011;66758;52.078;5.070;2023-04-30T14:42:21;3.03;;;1.80;;
77598;SDS011;66758;52.078;5.070;2023-04-30T14:44:46;4.97;;;2.07;;
77598;SDS011;66758;52.078;5.070;2023-04-30T14:47:11;3.97;;;1.90;;
77598;SDS011;66758;52.078;5.070;2023-04-30T14:49:37;4.70;;;1.97;;
77598;SDS011;66758;52.078;5.070;2023-04-30T14:52:02;3.37;;;2.27;;
77598;SDS011;66758;52.078;5.070;2023-04-30T14:54:28;3.92;;;2.38;;
77598;SDS011;66758;52.078;5.070;2023-04-30T14:56:53;3.80;;;2.57;;
77598;SDS011;66758;52.078;5.070;2023-04-30T14:59:19;3.70;;;1.80;;
77598;SDS011;66758;52.078;5.070;2023-04-30T15:01:44;2.67;;;2.00;;
77598;SDS011;66758;52.078;5.070;2023-04-30T15:04:10;4.40;;;2.75;;
77598;SDS011;66758;52.078;5.070;2023-04-30T15:06:35;4.60;;;2.37;;
77598;SDS011;66758;52.078;5.070;2023-04-30T15:09:00;3.33;;;1.90;;
77598;SDS011;66758;52.078;5.070;2023-04-30T15:11:26;5.57;;;3.63;;